createdAt,value
2023-03-28T00:04:11.518Z,101116.56
2023-03-28T00:09:09.089Z,101122.69
2023-03-28T00:14:08.209Z,101126.13
2023-03-28T00:19:08.426Z,101125.47
2023-03-28T00:24:10.679Z,101122.81
2023-03-28T00:29:11.529Z,101133.50
2023-03-28T00:34:08.362Z,101129.25
2023-03-28T00:39:10.113Z,101143.22
2023-03-28T00:45:03.503Z,101151.16
2023-03-28T00:50:05.356Z,101153.03
2023-03-28T00:55:04.520Z,101157.47
2023-03-28T01:00:01.039Z,101158.44
2023-03-28T01:05:03.712Z,101151.31
2023-03-28T01:10:00.937Z,101156.59
2023-03-28T01:14:57.537Z,101153.28
2023-03-28T01:20:14.118Z,101156.94
2023-03-28T01:25:32.586Z,101163.09
2023-03-28T01:30:51.608Z,101169.22
2023-03-28T01:35:57.014Z,101178.81
2023-03-28T01:41:14.392Z,101166.69
2023-03-28T01:46:32.548Z,101176.38
2023-03-28T01:51:57.039Z,101172.94
2023-03-28T01:57:18.934Z,101173.09
2023-03-28T02:02:22.660Z,101183.56
2023-03-28T02:07:24.617Z,101185.22
2023-03-28T02:12:31.725Z,101175.72
2023-03-28T02:17:29.963Z,101177.53
2023-03-28T02:22:36.626Z,101172.41
2023-03-28T02:27:34.903Z,101173.47
2023-03-28T02:32:34.106Z,101165.88
2023-03-28T02:37:47.093Z,101166.09
2023-03-28T02:43:07.749Z,101170.69
2023-03-28T02:48:20.139Z,101166.44
2023-03-28T02:53:32.706Z,101164.00
2023-03-28T02:58:46.474Z,101164.91
2023-03-28T03:03:43.809Z,101167.56
2023-03-28T03:08:40.269Z,101170.31
2023-03-28T03:13:36.605Z,101165.94
2023-03-28T03:18:34.860Z,101170.31
2023-03-28T03:23:31.391Z,101169.44
2023-03-28T03:28:27.932Z,101172.97
2023-03-28T03:33:24.441Z,101173.88
2023-03-28T03:38:20.895Z,101178.25
2023-03-28T03:43:17.321Z,101184.44
2023-03-28T03:48:13.787Z,101176.69
2023-03-28T03:53:10.343Z,101184.75
2023-03-28T03:58:06.936Z,101185.78
2023-03-28T04:03:03.537Z,101185.84
2023-03-28T04:08:01.526Z,101188.53
2023-03-28T04:12:57.919Z,101199.81
2023-03-28T04:17:56.922Z,101208.56
2023-03-28T04:22:54.695Z,101220.91
2023-03-28T04:27:54.836Z,101218.44
2023-03-28T04:32:54.304Z,101221.06
2023-03-28T04:37:50.804Z,101236.81
2023-03-28T04:42:47.361Z,101237.00
2023-03-28T04:47:43.745Z,101234.34
2023-03-28T04:52:41.660Z,101231.72
2023-03-28T04:57:38.207Z,101237.94
2023-03-28T05:02:35.043Z,101250.94
2023-03-28T05:07:31.464Z,101255.28
2023-03-28T05:12:27.822Z,101277.91
2023-03-28T05:17:24.673Z,101279.72
2023-03-28T05:22:21.605Z,101288.56
2023-03-28T05:27:18.011Z,101298.09
2023-03-28T05:32:14.498Z,101296.22
2023-03-28T05:37:10.893Z,101300.53
2023-03-28T05:42:08.794Z,101309.56
2023-03-28T05:47:05.263Z,101305.97
2023-03-28T05:52:01.930Z,101321.88
2023-03-28T05:56:58.709Z,101327.56
2023-03-28T06:01:55.434Z,101326.28
2023-03-28T06:06:52.366Z,101338.50
2023-03-28T06:11:48.876Z,101331.41
2023-03-28T06:16:45.263Z,101328.31
2023-03-28T06:21:41.647Z,101324.97
2023-03-28T06:26:38.197Z,101317.09
2023-03-28T06:31:34.673Z,101314.34
2023-03-28T06:36:31.207Z,101314.75
2023-03-28T06:41:27.691Z,101313.47
2023-03-28T06:46:24.094Z,101319.66
2023-03-28T06:51:20.578Z,101325.38
2023-03-28T06:56:16.964Z,101326.94
2023-03-28T07:01:13.543Z,101327.94
2023-03-28T07:06:10.906Z,101337.94
2023-03-28T07:11:07.561Z,101342.94
2023-03-28T07:16:06.772Z,101338.00
2023-03-28T07:21:11.750Z,101350.16
2023-03-28T07:26:09.480Z,101352.50
2023-03-28T07:31:06.101Z,101355.00
2023-03-28T07:36:11.000Z,101357.97
2023-03-28T07:41:08.269Z,101361.00
2023-03-28T07:46:08.014Z,101364.28
2023-03-28T07:51:06.451Z,101363.66
2023-03-28T07:56:04.251Z,101365.19
2023-03-28T08:01:06.172Z,101368.34
2023-03-28T08:06:09.215Z,101370.34
2023-03-28T08:11:12.293Z,101359.22
2023-03-28T08:16:09.493Z,101368.38
2023-03-28T08:21:06.128Z,101367.75
2023-03-28T08:26:05.939Z,101373.59
2023-03-28T08:31:03.090Z,101370.59
2023-03-28T08:35:59.723Z,101370.28
2023-03-28T08:41:41.963Z,101374.38
2023-03-28T08:46:42.268Z,101373.53
2023-03-28T08:51:43.836Z,101366.19
2023-03-28T08:56:45.911Z,101365.19
2023-03-28T09:01:43.846Z,101359.03
2023-03-28T09:06:44.545Z,101355.25
2023-03-28T09:11:48.116Z,101348.72
2023-03-28T09:17:09.028Z,101352.00
2023-03-28T09:22:37.017Z,101351.81
2023-03-28T09:27:48.037Z,101349.63
2023-03-28T09:32:45.771Z,101355.13
2023-03-28T09:37:46.798Z,101355.31
2023-03-28T09:43:04.642Z,101350.56
2023-03-28T09:48:01.975Z,101354.31
2023-03-28T09:52:59.069Z,101354.16
2023-03-28T09:58:25.132Z,101346.97
2023-03-28T10:03:34.729Z,101343.31
2023-03-28T10:08:40.178Z,101334.69
2023-03-28T10:13:40.538Z,101344.38
2023-03-28T10:18:38.824Z,101346.44
2023-03-28T10:23:36.755Z,101346.16
2023-03-28T10:28:35.998Z,101344.44
2023-03-28T10:33:34.315Z,101332.34
2023-03-28T10:38:36.620Z,101333.41
2023-03-28T10:43:38.854Z,101331.50
2023-03-28T10:48:36.445Z,101322.31
2023-03-28T10:53:51.184Z,101323.78
2023-03-28T10:59:12.116Z,101316.72
2023-03-28T11:04:45.963Z,101314.81
2023-03-28T11:09:56.212Z,101330.81
2023-03-28T11:15:16.737Z,101326.34
2023-03-28T11:20:25.772Z,101319.09
2023-03-28T11:25:34.023Z,101317.00
2023-03-28T11:30:33.932Z,101312.75
2023-03-28T11:35:37.178Z,101295.38
2023-03-28T11:40:46.908Z,101301.91
2023-03-28T11:45:52.751Z,101295.75
2023-03-28T11:51:07.906Z,101291.75
2023-03-28T11:56:14.303Z,101270.97
2023-03-28T12:01:27.567Z,101271.06
2023-03-28T12:06:37.072Z,101255.88
2023-03-28T12:11:39.596Z,101248.47
2023-03-28T12:16:45.144Z,101246.13
2023-03-28T12:21:51.580Z,101239.28
2023-03-28T12:27:25.616Z,101230.63
2023-03-28T12:32:51.711Z,101225.22
2023-03-28T12:38:16.347Z,101215.88
2023-03-28T12:43:15.914Z,101206.22
2023-03-28T12:48:31.929Z,101190.91
2023-03-28T12:53:32.430Z,101183.88
2023-03-28T12:58:33.490Z,101180.50
2023-03-28T13:03:52.965Z,101187.78
2023-03-28T13:09:14.569Z,101178.81
2023-03-28T13:14:37.218Z,101183.31
2023-03-28T13:19:43.209Z,101167.22
2023-03-28T13:24:39.886Z,101160.97
2023-03-28T13:29:44.312Z,101161.13
2023-03-28T13:34:47.482Z,101145.94
2023-03-28T13:39:51.035Z,101145.22
2023-03-28T13:44:50.798Z,101136.44
2023-03-28T13:49:52.165Z,101120.28
2023-03-28T13:54:54.029Z,101130.16
2023-03-28T14:00:04.758Z,101118.94
2023-03-28T14:05:25.074Z,101107.91
2023-03-28T14:10:27.658Z,101095.25
2023-03-28T14:15:29.680Z,101080.28
2023-03-28T14:20:27.426Z,101068.91
2023-03-28T14:25:24.864Z,101054.00
2023-03-28T14:30:30.171Z,101039.06
2023-03-28T14:35:32.002Z,101035.63
2023-03-28T14:40:31.552Z,101029.00
2023-03-28T14:45:29.077Z,101024.19
2023-03-28T14:50:30.781Z,101011.94
2023-03-28T14:55:27.975Z,101015.34
2023-03-28T15:00:34.750Z,101012.88
2023-03-28T15:05:31.461Z,101009.28
2023-03-28T15:10:29.010Z,101014.13
2023-03-28T15:15:31.005Z,100994.44
2023-03-28T15:20:32.047Z,100983.38
2023-03-28T15:25:30.314Z,100974.41
2023-03-28T15:30:30.068Z,100953.09
2023-03-28T15:35:32.876Z,100959.53
2023-03-28T15:40:36.693Z,100946.13
2023-03-28T15:45:40.699Z,100930.53
2023-03-28T15:50:38.436Z,100927.22
2023-03-28T15:55:35.611Z,100932.56
2023-03-28T16:00:41.887Z,100923.59
2023-03-28T16:05:38.218Z,100915.16
2023-03-28T16:10:34.526Z,100909.94
2023-03-28T16:15:31.481Z,100906.16
2023-03-28T16:20:27.816Z,100894.41
2023-03-28T16:25:24.136Z,100893.81
2023-03-28T16:30:27.078Z,100894.59
2023-03-28T16:35:27.022Z,100879.72
2023-03-28T16:40:23.452Z,100874.31
2023-03-28T16:45:20.574Z,100862.69
2023-03-28T16:50:17.370Z,100860.97
2023-03-28T16:55:16.081Z,100856.50
2023-03-28T17:00:18.355Z,100844.09
2023-03-28T17:05:16.022Z,100839.44
2023-03-28T17:10:12.342Z,100832.84
2023-03-28T17:15:09.413Z,100837.66
2023-03-28T17:20:06.499Z,100842.31
2023-03-28T17:25:03.291Z,100836.97
2023-03-28T17:29:59.667Z,100838.22
2023-03-28T17:34:56.221Z,100835.50
2023-03-28T17:39:52.601Z,100837.41
2023-03-28T17:44:49.766Z,100834.00
2023-03-28T17:49:46.075Z,100833.66
2023-03-28T17:54:42.841Z,100833.13
2023-03-28T17:59:39.419Z,100827.84
2023-03-28T18:04:35.830Z,100820.44
2023-03-28T18:09:32.103Z,100819.41
2023-03-28T18:14:28.915Z,100809.59
2023-03-28T18:19:25.517Z,100817.09
2023-03-28T18:24:21.946Z,100810.13
2023-03-28T18:29:18.425Z,100815.97
2023-03-28T18:34:14.791Z,100816.94
2023-03-28T18:39:11.480Z,100808.00
2023-03-28T18:44:07.816Z,100801.94
2023-03-28T18:49:04.277Z,100803.22
2023-03-28T18:54:01.548Z,100796.97
2023-03-28T18:58:57.865Z,100794.78
2023-03-28T19:03:55.360Z,100788.25
2023-03-28T19:08:51.765Z,100785.34
2023-03-28T19:13:48.200Z,100783.16
2023-03-28T19:18:47.308Z,100778.91
2023-03-28T19:23:44.585Z,100768.97
2023-03-28T19:28:42.564Z,100767.03
2023-03-28T19:33:42.961Z,100759.16
2023-03-28T19:38:40.192Z,100748.88
2023-03-28T19:43:36.622Z,100744.16
2023-03-28T19:48:34.808Z,100740.69
2023-03-28T19:53:31.233Z,100736.94
2023-03-28T19:58:28.039Z,100726.66
2023-03-28T20:03:24.764Z,100717.78
2023-03-28T20:08:21.778Z,100714.22
2023-03-28T20:13:18.741Z,100714.06
2023-03-28T20:18:20.296Z,100708.78
2023-03-28T20:23:18.295Z,100701.34
2023-03-28T20:28:14.952Z,100694.03
2023-03-28T20:33:11.672Z,100686.28
2023-03-28T20:38:09.411Z,100680.66
2023-03-28T20:43:10.000Z,100684.31
2023-03-28T20:48:07.517Z,100688.91
2023-03-28T20:53:08.220Z,100682.22
2023-03-28T20:58:04.714Z,100680.94
2023-03-28T21:03:03.245Z,100669.59
2023-03-28T21:08:00.223Z,100664.75
2023-03-28T21:12:56.533Z,100671.22
2023-03-28T21:17:53.595Z,100656.94
2023-03-28T21:22:50.098Z,100656.88
2023-03-28T21:27:46.603Z,100660.00
2023-03-28T21:32:43.046Z,100674.06
2023-03-28T21:37:39.409Z,100680.59
2023-03-28T21:42:35.794Z,100672.06
2023-03-28T21:47:32.272Z,100667.81
2023-03-28T21:52:28.636Z,100659.03
2023-03-28T21:57:25.116Z,100656.22
2023-03-28T22:02:21.539Z,100659.31
2023-03-28T22:07:17.882Z,100660.84
2023-03-28T22:12:14.743Z,100661.53
2023-03-28T22:17:11.401Z,100647.91
2023-03-28T22:22:07.754Z,100653.53
2023-03-28T22:27:04.614Z,100644.69
2023-03-28T22:32:00.985Z,100651.66
2023-03-28T22:36:57.510Z,100647.56
2023-03-28T22:41:54.160Z,100645.97
2023-03-28T22:46:51.318Z,100637.44
2023-03-28T22:51:49.359Z,100648.25
2023-03-28T22:56:46.029Z,100643.38
2023-03-28T23:01:45.337Z,100645.63
2023-03-28T23:06:42.685Z,100641.72
2023-03-28T23:11:40.183Z,100635.03
2023-03-28T23:16:38.273Z,100634.28
2023-03-28T23:21:38.296Z,100626.84
2023-03-28T23:26:34.586Z,100629.19
2023-03-28T23:31:31.044Z,100632.22
2023-03-28T23:36:30.025Z,100634.34
2023-03-28T23:41:26.414Z,100633.72
2023-03-28T23:46:22.848Z,100617.22
2023-03-28T23:51:19.239Z,100617.97
2023-03-28T23:56:15.589Z,100602.72
